createdAt,value
2022-11-05T00:00:07.741Z,1.23
2022-11-05T00:02:53.119Z,1.10
2022-11-05T00:08:38.807Z,1.23
2022-11-05T00:11:06.859Z,1.30
2022-11-05T00:13:52.374Z,1.27
2022-11-05T00:16:35.523Z,1.10
2022-11-05T00:19:10.135Z,1.45
2022-11-05T00:21:57.451Z,1.42
2022-11-05T00:24:43.431Z,1.13
2022-11-05T00:27:11.893Z,1.20
2022-11-05T00:29:39.843Z,1.38
2022-11-05T00:32:09.200Z,1.13
2022-11-05T00:34:37.090Z,1.33
2022-11-05T00:37:05.038Z,1.25
2022-11-05T00:39:32.947Z,1.27
2022-11-05T00:42:18.096Z,1.20
2022-11-05T00:45:04.385Z,1.00
2022-11-05T00:47:52.717Z,1.17
2022-11-05T00:50:21.914Z,1.10
2022-11-05T00:52:59.544Z,1.05
2022-11-05T00:55:31.059Z,1.27
2022-11-05T00:57:59.210Z,1.15
2022-11-05T01:00:29.343Z,1.48
2022-11-05T01:03:01.805Z,1.20
2022-11-05T01:05:30.975Z,1.15
2022-11-05T01:07:59.409Z,1.05
2022-11-05T01:10:28.315Z,1.00
2022-11-05T01:12:56.506Z,1.00
2022-11-05T01:15:24.653Z,1.42
2022-11-05T01:17:53.155Z,1.25
2022-11-05T01:20:22.431Z,1.08
2022-11-05T01:22:50.358Z,1.33
2022-11-05T01:25:18.362Z,1.30
2022-11-05T01:27:46.595Z,1.35
2022-11-05T01:30:14.850Z,1.10
2022-11-05T01:32:42.991Z,1.08
2022-11-05T01:35:13.768Z,0.90
2022-11-05T01:37:43.375Z,1.00
2022-11-05T01:40:13.693Z,1.30
2022-11-05T01:42:41.629Z,1.13
2022-11-05T01:45:16.246Z,1.17
2022-11-05T01:47:59.398Z,1.00
2022-11-05T01:50:44.175Z,1.00
2022-11-05T01:53:22.755Z,0.90
2022-11-05T01:55:55.867Z,1.23
2022-11-05T01:58:27.627Z,1.00
2022-11-05T02:00:57.222Z,1.00
2022-11-05T02:03:26.259Z,1.08
2022-11-05T02:05:56.348Z,1.00
2022-11-05T02:08:36.572Z,1.10
2022-11-05T02:11:04.599Z,0.90
2022-11-05T02:13:32.471Z,1.17
2022-11-05T02:16:08.334Z,1.02
2022-11-05T02:18:47.176Z,0.93
2022-11-05T02:21:51.955Z,0.82
2022-11-05T02:24:57.771Z,1.02
2022-11-05T02:27:53.534Z,1.00
2022-11-05T02:33:32.420Z,1.25
2022-11-05T02:36:24.779Z,1.15
2022-11-05T02:39:06.015Z,1.08
2022-11-05T02:41:40.952Z,1.48
2022-11-05T02:46:55.306Z,0.80
2022-11-05T02:49:32.614Z,1.08
2022-11-05T02:52:05.502Z,1.00
2022-11-05T02:54:37.225Z,1.00
2022-11-05T02:57:05.892Z,0.98
2022-11-05T02:59:33.854Z,0.93
2022-11-05T03:02:04.850Z,1.10
2022-11-05T03:04:33.165Z,0.98
2022-11-05T03:07:27.360Z,0.77
2022-11-05T03:10:21.831Z,0.85
2022-11-05T03:13:02.555Z,0.98
2022-11-05T03:15:44.057Z,0.90
2022-11-05T03:18:19.453Z,0.75
2022-11-05T03:20:52.159Z,0.90
2022-11-05T03:23:28.493Z,0.95
2022-11-05T03:26:00.482Z,1.00
2022-11-05T03:28:31.528Z,1.02
2022-11-05T03:31:00.087Z,0.95
2022-11-05T03:33:32.343Z,1.10
2022-11-05T03:36:04.288Z,1.00
2022-11-05T03:38:37.519Z,0.80
2022-11-05T03:41:09.859Z,0.90
2022-11-05T03:43:41.418Z,1.00
2022-11-05T03:46:12.927Z,0.88
2022-11-05T03:48:48.311Z,0.80
2022-11-05T03:51:24.615Z,0.70
2022-11-05T03:53:56.705Z,0.93
2022-11-05T03:56:30.287Z,1.00
2022-11-05T03:59:00.760Z,1.00
2022-11-05T04:01:29.474Z,1.10
2022-11-05T04:03:58.830Z,0.68
2022-11-05T04:06:44.102Z,1.00
2022-11-05T04:09:29.657Z,0.90
2022-11-05T04:12:15.187Z,1.05
2022-11-05T04:14:43.064Z,1.10
2022-11-05T04:17:10.023Z,1.00
2022-11-05T04:19:58.513Z,1.00
2022-11-05T04:22:46.123Z,1.02
2022-11-05T04:25:15.160Z,0.80
2022-11-05T04:27:43.200Z,0.90
2022-11-05T04:30:20.103Z,1.00
2022-11-05T04:33:02.793Z,0.90
2022-11-05T04:35:33.518Z,0.90
2022-11-05T04:38:01.684Z,0.93
2022-11-05T04:40:29.829Z,1.20
2022-11-05T04:42:58.421Z,1.30
2022-11-05T04:45:29.746Z,0.77
2022-11-05T04:47:57.694Z,0.80
2022-11-05T04:50:25.821Z,0.90
2022-11-05T04:52:55.115Z,0.88
2022-11-05T04:55:23.277Z,0.93
2022-11-05T04:57:52.945Z,0.95
2022-11-05T05:00:22.082Z,0.70
2022-11-05T05:02:50.403Z,0.80
2022-11-05T05:05:18.688Z,0.70
2022-11-05T05:07:46.620Z,0.98
2022-11-05T05:10:15.885Z,0.80
2022-11-05T05:12:43.805Z,1.17
2022-11-05T05:15:11.740Z,0.75
2022-11-05T05:17:39.612Z,0.90
2022-11-05T05:20:25.616Z,0.88
2022-11-05T05:22:54.051Z,0.90
2022-11-05T05:25:23.659Z,0.90
2022-11-05T05:27:51.615Z,0.77
2022-11-05T05:30:19.663Z,0.82
2022-11-05T05:32:47.508Z,0.75
2022-11-05T05:35:15.530Z,0.82
2022-11-05T05:37:44.175Z,0.82
2022-11-05T05:40:12.694Z,0.80
2022-11-05T05:42:43.377Z,0.90
2022-11-05T05:45:12.431Z,0.70
2022-11-05T05:47:40.377Z,1.00
2022-11-05T05:50:08.655Z,0.70
2022-11-05T05:52:36.544Z,1.10
2022-11-05T05:55:04.610Z,0.88
2022-11-05T05:57:32.482Z,0.80
2022-11-05T06:00:01.966Z,0.80
2022-11-05T06:02:31.549Z,0.80
2022-11-05T06:04:59.528Z,1.08
2022-11-05T06:07:27.407Z,0.98
2022-11-05T06:09:55.266Z,0.95
2022-11-05T06:12:23.135Z,0.98
2022-11-05T06:14:51.005Z,1.58
2022-11-05T06:17:20.228Z,0.90
2022-11-05T06:19:48.408Z,1.10
2022-11-05T06:22:17.735Z,0.90
2022-11-05T06:24:45.609Z,0.90
2022-11-05T06:27:13.488Z,1.00
2022-11-05T06:29:41.372Z,1.10
2022-11-05T06:32:09.242Z,1.25
2022-11-05T06:34:38.464Z,0.82
2022-11-05T06:37:06.331Z,1.20
2022-11-05T06:39:34.886Z,1.02
2022-11-05T06:42:19.207Z,1.23
2022-11-05T06:44:47.613Z,1.13
2022-11-05T06:47:15.508Z,1.00
2022-11-05T06:49:44.759Z,1.00
2022-11-05T06:52:12.882Z,1.27
2022-11-05T06:54:42.199Z,1.00
2022-11-05T06:57:10.707Z,1.25
2022-11-05T06:59:39.220Z,1.00
2022-11-05T07:02:07.862Z,1.30
2022-11-05T07:04:36.240Z,0.95
2022-11-05T07:07:05.502Z,1.02
2022-11-05T07:09:33.371Z,1.10
2022-11-05T07:12:01.253Z,0.93
2022-11-05T07:14:29.128Z,1.27
2022-11-05T07:16:58.124Z,1.20
2022-11-05T07:19:26.075Z,1.00
2022-11-05T07:21:53.990Z,1.10
2022-11-05T07:24:23.227Z,1.23
2022-11-05T07:26:51.097Z,1.00
2022-11-05T07:29:18.984Z,1.08
2022-11-05T07:31:47.515Z,1.00
2022-11-05T07:34:15.503Z,0.98
2022-11-05T07:36:43.399Z,1.30
2022-11-05T07:39:11.295Z,1.10
2022-11-05T07:41:40.574Z,1.20
2022-11-05T07:44:08.739Z,1.00
2022-11-05T07:46:36.626Z,1.13
2022-11-05T07:49:04.915Z,0.90
2022-11-05T07:51:32.933Z,1.17
2022-11-05T07:54:00.840Z,1.10
2022-11-05T07:56:28.729Z,0.98
2022-11-05T07:58:58.096Z,1.10
2022-11-05T08:01:26.116Z,1.17
2022-11-05T08:03:54.330Z,0.98
2022-11-05T08:06:22.470Z,1.00
2022-11-05T08:08:50.360Z,1.10
2022-11-05T08:11:18.838Z,1.30
2022-11-05T08:13:46.755Z,1.00
2022-11-05T08:16:16.469Z,1.10
2022-11-05T08:18:44.650Z,1.20
2022-11-05T08:21:12.645Z,1.40
2022-11-05T08:23:42.459Z,1.17
2022-11-05T08:26:11.390Z,1.15
2022-11-05T08:28:39.258Z,1.10
2022-11-05T08:31:07.216Z,0.95
2022-11-05T08:33:36.475Z,0.93
2022-11-05T08:36:05.661Z,1.00
2022-11-05T08:38:33.668Z,1.00
2022-11-05T08:41:01.580Z,1.25
2022-11-05T08:43:29.511Z,1.00
2022-11-05T08:45:57.428Z,1.10
2022-11-05T08:48:25.309Z,0.93
2022-11-05T08:50:54.542Z,1.23
2022-11-05T08:53:22.538Z,1.08
2022-11-05T08:55:51.468Z,1.02
2022-11-05T08:58:20.632Z,1.15
2022-11-05T09:00:50.417Z,0.82
2022-11-05T09:03:18.835Z,1.30
2022-11-05T09:05:46.966Z,0.85
2022-11-05T09:08:18.494Z,1.20
2022-11-05T09:10:47.677Z,0.93
2022-11-05T09:13:19.227Z,1.05
2022-11-05T09:15:48.640Z,1.20
2022-11-05T09:18:17.692Z,1.08
2022-11-05T09:20:45.925Z,1.10
2022-11-05T09:23:15.486Z,1.10
2022-11-05T09:25:45.139Z,1.45
2022-11-05T09:28:17.089Z,1.35
2022-11-05T09:30:47.409Z,1.05
2022-11-05T09:33:16.244Z,1.30
2022-11-05T09:35:44.203Z,1.30
2022-11-05T09:38:12.125Z,1.17
2022-11-05T09:40:48.450Z,0.95
2022-11-05T09:43:20.082Z,1.23
2022-11-05T09:45:53.167Z,1.52
2022-11-05T09:48:25.677Z,1.17
2022-11-05T09:50:55.228Z,1.20
2022-11-05T09:53:25.435Z,1.40
2022-11-05T09:55:57.325Z,1.40
2022-11-05T09:58:35.269Z,1.60
2022-11-05T10:01:05.657Z,1.23
2022-11-05T10:03:39.798Z,1.42
2022-11-05T10:06:10.280Z,1.60
2022-11-05T10:08:42.332Z,1.40
2022-11-05T10:11:17.266Z,1.50
2022-11-05T10:16:24.419Z,1.25
2022-11-05T10:18:58.311Z,1.60
2022-11-05T10:21:51.441Z,1.20
2022-11-05T10:24:17.177Z,1.50
2022-11-05T10:26:49.452Z,1.15
2022-11-05T10:29:23.609Z,1.70
2022-11-05T10:31:53.645Z,1.67
2022-11-05T10:34:23.281Z,1.15
2022-11-05T10:36:51.204Z,1.30
2022-11-05T10:39:20.642Z,1.30
2022-11-05T10:42:13.356Z,1.15
2022-11-05T10:44:47.567Z,1.02
2022-11-05T10:47:50.284Z,1.23
2022-11-05T10:50:20.810Z,1.10
2022-11-05T10:52:58.007Z,1.25
2022-11-05T10:55:29.000Z,1.52
2022-11-05T10:58:09.931Z,1.13
2022-11-05T11:00:38.504Z,1.25
2022-11-05T11:03:27.472Z,1.13
2022-11-05T11:06:00.892Z,1.95
2022-11-05T11:08:29.525Z,1.42
2022-11-05T11:10:59.810Z,1.60
2022-11-05T11:13:30.869Z,1.38
2022-11-05T11:16:15.587Z,1.20
2022-11-05T11:18:44.794Z,1.30
2022-11-05T11:21:15.334Z,1.63
2022-11-05T11:23:44.636Z,1.45
2022-11-05T11:26:14.192Z,1.33
2022-11-05T11:28:48.194Z,1.17
2022-11-05T11:31:21.544Z,1.50
2022-11-05T11:33:54.112Z,1.10
2022-11-05T11:36:27.927Z,1.50
2022-11-05T11:39:01.015Z,1.52
2022-11-05T11:41:32.295Z,1.08
2022-11-05T11:44:07.062Z,1.40
2022-11-05T11:46:36.286Z,1.20
2022-11-05T11:49:04.515Z,1.42
2022-11-05T11:51:36.787Z,2.00
2022-11-05T11:54:06.149Z,1.88
2022-11-05T11:56:45.775Z,1.35
2022-11-05T11:59:40.447Z,1.20
2022-11-05T12:03:01.547Z,1.23
2022-11-05T12:05:35.995Z,1.45
2022-11-05T12:08:16.704Z,2.17
2022-11-05T12:10:55.679Z,2.10
2022-11-05T12:13:47.987Z,2.08
2022-11-05T12:16:36.811Z,2.47
2022-11-05T12:19:18.643Z,2.97
2022-11-05T12:21:53.468Z,2.65
2022-11-05T12:27:12.009Z,3.42
2022-11-05T12:29:53.145Z,3.20
2022-11-05T12:32:38.570Z,3.90
2022-11-05T12:35:18.101Z,3.97
2022-11-05T12:37:54.505Z,4.15
2022-11-05T12:40:44.018Z,5.20
2022-11-05T12:43:32.078Z,4.45
2022-11-05T12:46:09.565Z,4.10
2022-11-05T12:49:15.175Z,5.35
2022-11-05T12:51:57.255Z,4.93
2022-11-05T12:54:42.629Z,5.68
2022-11-05T12:59:47.092Z,6.40
2022-11-05T13:02:22.298Z,5.50
2022-11-05T13:04:55.105Z,6.05
2022-11-05T13:07:28.776Z,5.32
2022-11-05T13:10:02.127Z,5.28
2022-11-05T13:12:34.274Z,4.97
2022-11-05T13:15:06.134Z,4.97
2022-11-05T13:17:48.540Z,5.22
2022-11-05T13:20:21.818Z,5.50
2022-11-05T13:22:53.762Z,7.00
2022-11-05T13:25:25.248Z,5.07
2022-11-05T13:27:59.268Z,4.95
2022-11-05T13:30:31.411Z,4.95
2022-11-05T13:33:03.299Z,4.63
2022-11-05T13:35:37.245Z,5.30
2022-11-05T13:38:27.021Z,4.82
2022-11-05T13:41:11.920Z,6.22
2022-11-05T13:44:09.753Z,5.53
2022-11-05T13:46:56.071Z,5.30
2022-11-05T13:49:50.797Z,4.70
2022-11-05T13:52:46.930Z,4.75
2022-11-05T13:56:05.857Z,4.32
2022-11-05T13:58:57.491Z,4.45
2022-11-05T14:01:41.673Z,5.43
2022-11-05T14:04:17.390Z,4.68
2022-11-05T14:06:45.362Z,5.03
2022-11-05T14:09:27.397Z,4.13
2022-11-05T14:11:57.820Z,4.38
2022-11-05T14:14:29.821Z,4.50
2022-11-05T14:17:16.164Z,3.97
2022-11-05T14:20:25.062Z,4.07
2022-11-05T14:22:53.581Z,4.97
2022-11-05T14:25:57.314Z,3.58
2022-11-05T14:28:43.695Z,3.63
2022-11-05T14:32:02.712Z,4.07
2022-11-05T14:34:24.868Z,4.65
2022-11-05T14:37:30.811Z,3.67
2022-11-05T14:40:24.470Z,4.53
2022-11-05T14:42:56.900Z,4.10
2022-11-05T14:45:29.824Z,3.63
2022-11-05T14:47:59.471Z,4.22
2022-11-05T14:50:40.908Z,3.45
2022-11-05T14:53:13.942Z,3.38
2022-11-05T14:55:44.558Z,3.90
2022-11-05T14:58:44.216Z,3.67
2022-11-05T15:01:49.776Z,3.75
2022-11-05T15:04:26.209Z,3.13
2022-11-05T15:07:14.110Z,4.18
2022-11-05T15:09:45.715Z,3.10
2022-11-05T15:12:20.064Z,3.80
2022-11-05T15:14:56.810Z,4.35
2022-11-05T15:17:29.916Z,3.55
2022-11-05T15:20:02.523Z,3.70
2022-11-05T15:22:33.801Z,3.28
2022-11-05T15:25:02.029Z,4.10
2022-11-05T15:27:59.430Z,3.50
2022-11-05T15:30:28.739Z,3.47
2022-11-05T15:33:08.466Z,3.25
2022-11-05T15:35:41.206Z,3.05
2022-11-05T15:38:27.165Z,3.15
2022-11-05T15:41:00.166Z,3.17
2022-11-05T15:43:28.307Z,3.88
2022-11-05T15:46:06.413Z,3.13
2022-11-05T15:48:35.598Z,3.75
2022-11-05T15:51:03.790Z,3.13
2022-11-05T15:53:51.570Z,2.65
2022-11-05T15:56:27.307Z,2.80
2022-11-05T15:58:59.706Z,3.63
2022-11-05T16:01:31.048Z,3.97
2022-11-05T16:04:07.075Z,3.28
2022-11-05T16:06:39.998Z,2.92
2022-11-05T16:09:08.680Z,3.15
2022-11-05T16:11:36.759Z,3.55
2022-11-05T16:14:15.986Z,3.40
2022-11-05T16:16:45.751Z,2.58
2022-11-05T16:19:39.899Z,2.78
2022-11-05T16:22:08.873Z,2.30
2022-11-05T16:24:36.788Z,2.65
2022-11-05T16:27:05.437Z,2.33
2022-11-05T16:29:35.775Z,2.33
2022-11-05T16:32:07.822Z,2.80
2022-11-05T16:34:38.826Z,2.67
2022-11-05T16:37:08.347Z,2.35
2022-11-05T16:39:36.248Z,2.78
2022-11-05T16:42:36.186Z,2.70
2022-11-05T16:45:04.559Z,2.63
2022-11-05T16:47:34.047Z,2.50
2022-11-05T16:50:02.063Z,2.17
2022-11-05T16:52:30.837Z,3.00
2022-11-05T16:54:58.787Z,2.17
2022-11-05T16:57:31.050Z,2.25
2022-11-05T17:00:00.689Z,2.38
2022-11-05T17:02:28.901Z,2.45
2022-11-05T17:04:58.293Z,2.83
2022-11-05T17:07:26.204Z,2.20
2022-11-05T17:09:54.092Z,2.08
2022-11-05T17:12:22.003Z,1.88
2022-11-05T17:14:49.895Z,2.40
2022-11-05T17:17:17.793Z,2.40
2022-11-05T17:19:46.366Z,2.25
2022-11-05T17:22:15.604Z,2.15
2022-11-05T17:24:43.740Z,2.10
2022-11-05T17:27:11.680Z,2.35
2022-11-05T17:29:39.554Z,2.05
2022-11-05T17:32:07.888Z,1.92
2022-11-05T17:34:35.895Z,2.15
2022-11-05T17:37:03.795Z,2.13
2022-11-05T17:39:33.166Z,2.05
2022-11-05T17:42:01.049Z,2.38
2022-11-05T17:44:28.939Z,2.50
2022-11-05T17:46:56.821Z,2.30
2022-11-05T17:49:24.677Z,1.98
2022-11-05T17:51:52.536Z,1.98
2022-11-05T17:54:20.429Z,1.98
2022-11-05T17:56:49.691Z,1.77
2022-11-05T17:59:17.719Z,2.10
2022-11-05T18:01:46.002Z,2.60
2022-11-05T18:04:14.006Z,2.13
2022-11-05T18:06:42.045Z,1.98
2022-11-05T18:09:11.193Z,2.00
2022-11-05T18:11:39.971Z,1.90
2022-11-05T18:14:09.490Z,2.08
2022-11-05T18:16:37.995Z,2.22
2022-11-05T18:19:06.303Z,1.67
2022-11-05T18:21:34.195Z,1.90
2022-11-05T18:24:03.854Z,1.80
2022-11-05T18:26:31.801Z,1.67
2022-11-05T18:29:01.158Z,1.65
2022-11-05T18:31:30.850Z,1.70
2022-11-05T18:34:00.527Z,1.90
2022-11-05T18:36:30.364Z,2.45
2022-11-05T18:38:59.086Z,1.67
2022-11-05T18:41:27.404Z,1.60
2022-11-05T18:44:00.477Z,1.95
2022-11-05T18:46:56.452Z,1.77
2022-11-05T18:49:18.231Z,1.90
2022-11-05T18:51:46.183Z,2.10
2022-11-05T18:54:14.320Z,2.17
2022-11-05T18:56:45.434Z,2.00
2022-11-05T19:02:03.342Z,1.77
2022-11-05T19:04:31.348Z,1.40
2022-11-05T19:07:04.515Z,1.55
2022-11-05T19:09:33.240Z,1.83
2022-11-05T19:12:01.320Z,1.85
2022-11-05T19:14:29.937Z,1.60
2022-11-05T19:16:58.347Z,1.60
2022-11-05T19:19:27.904Z,1.40
2022-11-05T19:21:56.136Z,1.63
2022-11-05T19:24:24.125Z,2.10
2022-11-05T19:26:52.130Z,1.60
2022-11-05T19:29:20.504Z,1.42
2022-11-05T19:31:48.647Z,1.58
2022-11-05T19:34:16.589Z,1.70
2022-11-05T19:36:46.197Z,2.13
2022-11-05T19:39:15.351Z,1.50
2022-11-05T19:41:46.221Z,2.05
2022-11-05T19:44:14.166Z,2.03
2022-11-05T19:46:42.067Z,1.90
2022-11-05T19:49:10.044Z,1.90
2022-11-05T19:51:37.895Z,2.30
2022-11-05T19:54:07.653Z,1.98
2022-11-05T19:56:36.874Z,1.85
2022-11-05T19:59:06.442Z,1.48
2022-11-05T20:01:35.193Z,1.80
2022-11-05T20:04:03.451Z,1.90
2022-11-05T20:06:33.378Z,1.80
2022-11-05T20:11:54.547Z,2.03
2022-11-05T20:14:23.111Z,2.03
2022-11-05T20:16:51.857Z,2.05
2022-11-05T20:19:21.651Z,1.98
2022-11-05T20:21:50.156Z,1.77
2022-11-05T20:24:24.782Z,1.73
2022-11-05T20:26:55.528Z,1.88
2022-11-05T20:29:26.046Z,1.83
2022-11-05T20:31:57.766Z,1.70
2022-11-05T20:34:25.639Z,1.60
2022-11-05T20:36:53.517Z,1.70
2022-11-05T20:39:22.137Z,1.80
2022-11-05T20:41:50.085Z,1.45
2022-11-05T20:44:19.319Z,1.70
2022-11-05T20:46:47.187Z,1.88
2022-11-05T20:49:16.620Z,1.67
2022-11-05T20:51:46.883Z,1.35
2022-11-05T20:54:14.769Z,1.95
2022-11-05T20:56:43.187Z,1.73
2022-11-05T20:59:11.314Z,1.98
2022-11-05T21:01:40.700Z,1.40
2022-11-05T21:04:08.759Z,1.60
2022-11-05T21:06:36.930Z,1.85
2022-11-05T21:09:05.826Z,1.73
2022-11-05T21:11:53.675Z,3.13
2022-11-05T21:14:21.758Z,5.15
2022-11-05T21:16:51.018Z,4.95
2022-11-05T21:19:18.883Z,6.78
2022-11-05T21:21:47.784Z,8.25
2022-11-05T21:24:15.731Z,9.57
2022-11-05T21:26:43.651Z,11.50
2022-11-05T21:29:13.383Z,12.45
2022-11-05T21:31:41.310Z,14.90
2022-11-05T21:34:10.835Z,16.95
2022-11-05T21:36:38.785Z,16.98
2022-11-05T21:39:12.982Z,18.17
2022-11-05T21:41:42.513Z,17.80
2022-11-05T21:44:10.663Z,18.75
2022-11-05T21:46:38.756Z,20.95
2022-11-05T21:49:06.702Z,22.05
2022-11-05T21:51:53.315Z,23.88
2022-11-05T21:54:38.670Z,23.48
2022-11-05T21:59:56.372Z,25.77
2022-11-05T22:02:28.328Z,25.92
2022-11-05T22:04:59.818Z,27.83
2022-11-05T22:07:31.412Z,27.40
2022-11-05T22:09:59.942Z,29.70
2022-11-05T22:12:28.020Z,30.27
2022-11-05T22:14:56.070Z,31.10
2022-11-05T22:17:24.695Z,33.40
2022-11-05T22:19:52.736Z,32.92
2022-11-05T22:22:20.702Z,31.77
2022-11-05T22:24:50.011Z,34.50
2022-11-05T22:27:21.339Z,33.92
2022-11-05T22:29:49.500Z,32.53
2022-11-05T22:32:17.887Z,33.70
2022-11-05T22:34:45.927Z,34.97
2022-11-05T22:37:14.080Z,37.47
2022-11-05T22:39:42.040Z,35.95
2022-11-05T22:42:11.347Z,37.95
2022-11-05T22:44:39.256Z,37.67
2022-11-05T22:47:07.384Z,39.42
2022-11-05T22:49:35.633Z,40.97
2022-11-05T22:52:03.721Z,37.72
2022-11-05T22:54:36.411Z,40.90
2022-11-05T22:57:06.894Z,42.28
2022-11-05T22:59:36.157Z,41.40
2022-11-05T23:02:09.185Z,42.15
2022-11-05T23:04:38.313Z,40.97
2022-11-05T23:07:27.567Z,44.72
2022-11-05T23:10:13.505Z,43.45
2022-11-05T23:12:43.490Z,43.95
2022-11-05T23:15:34.288Z,47.58
2022-11-05T23:18:20.214Z,46.95
2022-11-05T23:21:05.661Z,45.65
2022-11-05T23:23:51.122Z,48.45
2022-11-05T23:26:36.653Z,47.53
2022-11-05T23:29:05.003Z,46.72
2022-11-05T23:31:51.597Z,47.63
2022-11-05T23:34:19.512Z,50.88
2022-11-05T23:37:04.931Z,49.17
2022-11-05T23:42:17.526Z,51.78
2022-11-05T23:45:02.608Z,50.92
2022-11-05T23:47:49.175Z,51.67
2022-11-05T23:50:17.123Z,54.15
2022-11-05T23:52:45.021Z,54.05
2022-11-05T23:55:12.908Z,56.25
2022-11-05T23:57:40.801Z,38.55
